createdAt,value
2018-09-02T00:00:25.520Z,1135.8
2018-09-02T00:01:25.533Z,1135.7
2018-09-02T00:02:25.532Z,1135.71
2018-09-02T00:03:25.538Z,1135.66
2018-09-02T00:04:25.557Z,1135.6
2018-09-02T00:05:25.552Z,1135.58
2018-09-02T00:06:25.537Z,1135.48
2018-09-02T00:07:25.880Z,1135.35
2018-09-02T00:08:25.539Z,1135.29
2018-09-02T00:09:25.541Z,1135.2
2018-09-02T00:10:25.550Z,1135.18
2018-09-02T00:11:25.554Z,1135.09
2018-09-02T00:12:25.561Z,1135.02
2018-09-02T00:13:25.569Z,1134.94
2018-09-02T00:14:25.547Z,1134.99
2018-09-02T00:15:25.568Z,1135.02
2018-09-02T00:16:25.556Z,1134.96
2018-09-02T00:17:25.562Z,1134.89
2018-09-02T00:18:25.568Z,1134.88
2018-09-02T00:19:25.579Z,1134.75
2018-09-02T00:20:25.604Z,1134.75
2018-09-02T00:21:25.572Z,1134.66
2018-09-02T00:22:25.561Z,1134.56
2018-09-02T00:23:25.568Z,1134.54
2018-09-02T00:24:25.588Z,1134.46
2018-09-02T00:25:25.580Z,1134.43
2018-09-02T00:26:25.590Z,1134.42
2018-09-02T00:27:25.601Z,1134.31
2018-09-02T00:28:25.568Z,1134.32
2018-09-02T00:29:25.581Z,1134.37
2018-09-02T00:30:25.623Z,1134.38
2018-09-02T00:31:25.588Z,1134.34
2018-09-02T00:32:25.596Z,1134.32
2018-09-02T00:33:25.598Z,1134.27
2018-09-02T00:34:25.588Z,1134.24
2018-09-02T00:35:25.577Z,1134.2
2018-09-02T00:36:25.587Z,1134.2
2018-09-02T00:37:25.967Z,1134.15
2018-09-02T00:38:25.601Z,1134.19
2018-09-02T00:39:25.605Z,1134.16
2018-09-02T00:40:25.613Z,1134.21
2018-09-02T00:41:25.589Z,1134.22
2018-09-02T00:42:42.395Z,1134.14
2018-09-02T00:43:42.701Z,1134.1
2018-09-02T00:44:42.404Z,1134.15
2018-09-02T00:45:42.366Z,1134
2018-09-02T00:46:42.380Z,1133.97
2018-09-02T00:47:42.378Z,1133.91
2018-09-02T00:48:42.396Z,1133.9
2018-09-02T00:49:42.396Z,1133.87
2018-09-02T00:50:42.392Z,1133.76
2018-09-02T00:51:42.378Z,1133.65
2018-09-02T00:52:42.396Z,1133.69
2018-09-02T00:53:42.387Z,1133.62
2018-09-02T00:54:42.393Z,1133.6
2018-09-02T00:55:42.400Z,1133.62
2018-09-02T00:56:42.383Z,1133.51
2018-09-02T00:57:42.388Z,1133.41
2018-09-02T00:58:42.399Z,1133.44
2018-09-02T00:59:42.401Z,1133.47
2018-09-02T01:00:42.399Z,1133.41
2018-09-02T01:01:42.404Z,1133.31
2018-09-02T01:02:42.429Z,1133.41
2018-09-02T01:03:42.633Z,1133.32
2018-09-02T01:04:42.397Z,1133.33
2018-09-02T01:05:42.408Z,1133.28
2018-09-02T01:06:42.407Z,1133.34
2018-09-02T01:07:42.421Z,1133.29
2018-09-02T01:08:42.430Z,1133.3
2018-09-02T01:09:42.424Z,1133.28
2018-09-02T01:10:42.420Z,1133.32
2018-09-02T01:11:42.415Z,1133.17
2018-09-02T01:12:42.784Z,1133.24
2018-09-02T01:13:42.419Z,1133.26
2018-09-02T01:14:42.421Z,1133.26
2018-09-02T01:15:42.429Z,1133.1
2018-09-02T01:16:42.423Z,1133.04
2018-09-02T01:17:42.425Z,1133.03
2018-09-02T01:18:42.848Z,1132.99
2018-09-02T01:19:42.425Z,1132.72
2018-09-02T01:20:42.432Z,1132.63
2018-09-02T01:21:42.432Z,1132.57
2018-09-02T01:22:42.439Z,1132.5
2018-09-02T01:23:42.448Z,1132.41
2018-09-02T01:24:42.440Z,1132.34
2018-09-02T01:25:42.433Z,1132.24
2018-09-02T01:26:42.435Z,1132.1
2018-09-02T01:27:42.448Z,1131.93
2018-09-02T01:28:42.448Z,1131.89
2018-09-02T01:29:42.466Z,1131.66
2018-09-02T01:30:42.433Z,1131.61
2018-09-02T01:31:42.462Z,1131.63
2018-09-02T01:32:42.449Z,1131.47
2018-09-02T01:33:42.447Z,1131.43
2018-09-02T01:34:42.457Z,1131.38
2018-09-02T01:35:42.456Z,1131.15
2018-09-02T01:36:42.463Z,1131.14
2018-09-02T01:37:42.477Z,1131.04
2018-09-02T01:38:42.461Z,1130.96
2018-09-02T01:39:42.467Z,1130.78
2018-09-02T01:40:42.468Z,1130.63
2018-09-02T01:41:42.467Z,1130.6
2018-09-02T01:42:42.484Z,1130.45
2018-09-02T01:43:42.475Z,1130.31
2018-09-02T01:44:42.481Z,1130.22
2018-09-02T01:45:42.487Z,1130.17
2018-09-02T01:46:42.465Z,1130.05
2018-09-02T01:47:42.470Z,1129.97
2018-09-02T01:48:42.473Z,1129.83
2018-09-02T01:49:42.476Z,1129.72
2018-09-02T01:50:42.493Z,1129.59
2018-09-02T01:51:42.476Z,1129.55
2018-09-02T01:52:42.482Z,1129.51
2018-09-02T01:53:42.485Z,1129.45
2018-09-02T01:54:42.497Z,1129.36
2018-09-02T01:55:42.484Z,1129.31
2018-09-02T01:56:42.496Z,1129.24
2018-09-02T01:57:59.312Z,1129.1
2018-09-02T01:58:59.275Z,1129.07
2018-09-02T01:59:59.270Z,1128.8
2018-09-02T02:00:59.756Z,1128.77
2018-09-02T02:01:59.283Z,1128.68
2018-09-02T02:02:59.258Z,1128.62
2018-09-02T02:03:59.266Z,1128.56
2018-09-02T02:04:59.270Z,1128.5
2018-09-02T02:05:59.299Z,1128.44
2018-09-02T02:06:59.284Z,1128.29
2018-09-02T02:07:59.292Z,1128.3
2018-09-02T02:08:59.287Z,1128.08
2018-09-02T02:09:59.275Z,1127.9
2018-09-02T02:10:59.273Z,1127.85
2018-09-02T02:11:59.297Z,1127.89
2018-09-02T02:12:59.294Z,1127.57
2018-09-02T02:13:59.308Z,1127.45
2018-09-02T02:14:59.308Z,1127.41
2018-09-02T02:15:59.312Z,1127.26
2018-09-02T02:16:59.354Z,1127.26
2018-09-02T02:17:59.294Z,1127.18
2018-09-02T02:18:59.294Z,1127.13
2018-09-02T02:19:59.307Z,1126.96
2018-09-02T02:20:59.305Z,1126.85
2018-09-02T02:21:59.313Z,1126.61
2018-09-02T02:22:59.323Z,1126.7
2018-09-02T02:23:59.288Z,1126.61
2018-09-02T02:24:59.311Z,1126.52
2018-09-02T02:25:59.312Z,1126.5
2018-09-02T02:26:59.319Z,1126.48
2018-09-02T02:27:59.356Z,1126.4
2018-09-02T02:28:59.291Z,1126.36
2018-09-02T02:29:59.315Z,1126.44
2018-09-02T02:30:59.337Z,1126.22
2018-09-02T02:31:59.309Z,1126.29
2018-09-02T02:32:59.318Z,1126.25
2018-09-02T02:39:36.320Z,1126.05
2018-09-02T02:40:36.192Z,1126.09
2018-09-02T02:41:36.249Z,1126.05
2018-09-02T02:42:36.219Z,1125.99
2018-09-02T02:43:36.218Z,1126.04
2018-09-02T02:44:36.217Z,1125.99
2018-09-02T02:45:36.225Z,1126.04
2018-09-02T02:46:36.230Z,1126.1
2018-09-02T02:47:36.222Z,1126.07
2018-09-02T02:48:36.248Z,1125.99
2018-09-02T02:49:36.218Z,1125.99
2018-09-02T02:50:36.237Z,1125.85
2018-09-02T02:51:36.233Z,1125.92
2018-09-02T02:52:36.237Z,1125.79
2018-09-02T02:53:36.209Z,1125.76
2018-09-02T02:54:36.265Z,1125.65
2018-09-02T02:55:36.224Z,1125.75
2018-09-02T02:56:36.233Z,1125.73
2018-09-02T02:57:36.235Z,1125.63
2018-09-02T02:58:36.250Z,1125.43
2018-09-02T02:59:36.257Z,1125.49
2018-09-02T03:00:36.257Z,1125.52
2018-09-02T03:01:36.239Z,1125.51
2018-09-02T03:02:36.239Z,1125.59
2018-09-02T03:03:36.253Z,1125.7
2018-09-02T03:04:36.248Z,1125.61
2018-09-02T03:05:36.257Z,1125.68
2018-09-02T03:06:36.261Z,1125.6
2018-09-02T03:07:36.268Z,1125.69
2018-09-02T03:08:36.249Z,1125.65
2018-09-02T03:09:36.267Z,1125.73
2018-09-02T03:10:36.285Z,1125.67
2018-09-02T03:11:36.267Z,1125.73
2018-09-02T03:12:36.264Z,1125.62
2018-09-02T03:13:36.280Z,1125.49
2018-09-02T03:14:36.267Z,1125.51
2018-09-02T03:15:36.288Z,1125.55
2018-09-02T03:16:36.266Z,1125.47
2018-09-02T03:17:36.262Z,1125.29
2018-09-02T03:18:36.269Z,1125.21
2018-09-02T03:19:36.276Z,1125.12
2018-09-02T03:20:36.284Z,1125.06
2018-09-02T03:21:36.266Z,1125.17
2018-09-02T03:22:36.279Z,1125.14
2018-09-02T03:23:36.269Z,1125.03
2018-09-02T03:24:36.277Z,1124.96
2018-09-02T03:25:36.285Z,1125.02
2018-09-02T03:26:36.289Z,1124.99
2018-09-02T03:27:36.296Z,1125.02
2018-09-02T03:28:36.304Z,1124.83
2018-09-02T03:35:16.562Z,1124.77
2018-09-02T03:36:16.561Z,1124.72
2018-09-02T03:37:16.545Z,1124.74
2018-09-02T03:38:16.534Z,1124.5
2018-09-02T03:39:16.560Z,1124.74
2018-09-02T03:40:16.548Z,1124.64
2018-09-02T03:41:16.555Z,1124.53
2018-09-02T03:42:16.566Z,1124.53
2018-09-02T03:43:16.570Z,1124.75
2018-09-02T03:44:16.560Z,1124.6
2018-09-02T03:45:16.561Z,1124.64
2018-09-02T03:46:16.553Z,1124.61
2018-09-02T03:47:16.565Z,1124.56
2018-09-02T03:48:16.576Z,1124.52
2018-09-02T03:49:16.574Z,1124.48
2018-09-02T03:50:16.599Z,1124.32
2018-09-02T03:51:16.559Z,1124.14
2018-09-02T03:52:16.566Z,1124.1
2018-09-02T03:53:16.575Z,1124.05
2018-09-02T03:54:16.584Z,1123.91
2018-09-02T03:55:16.582Z,1123.83
2018-09-02T03:56:16.580Z,1123.87
2018-09-02T03:57:16.579Z,1123.71
2018-09-02T03:58:16.573Z,1123.65
2018-09-02T03:59:16.581Z,1123.53
2018-09-02T04:00:16.605Z,1123.49
2018-09-02T04:01:16.582Z,1123.37
2018-09-02T04:02:16.589Z,1123.28
2018-09-02T04:03:16.595Z,1123.07
2018-09-02T04:04:16.601Z,1122.94
2018-09-02T04:05:16.593Z,1122.89
2018-09-02T04:06:16.616Z,1122.77
2018-09-02T04:07:16.587Z,1122.83
2018-09-02T04:08:16.598Z,1122.71
2018-09-02T04:09:16.607Z,1122.82
2018-09-02T04:10:16.619Z,1122.71
2018-09-02T04:11:16.640Z,1122.73
2018-09-02T04:12:16.632Z,1122.55
2018-09-02T04:13:16.613Z,1122.57
2018-09-02T04:14:16.603Z,1122.45
2018-09-02T04:15:16.612Z,1122.53
2018-09-02T04:16:16.609Z,1122.56
2018-09-02T04:17:16.618Z,1122.59
2018-09-02T04:18:16.649Z,1122.61
2018-09-02T04:19:16.667Z,1122.76
2018-09-02T04:20:16.623Z,1122.67
2018-09-02T04:21:16.617Z,1122.67
2018-09-02T04:22:16.622Z,1122.91
2018-09-02T04:23:16.624Z,1122.84
2018-09-02T04:24:16.637Z,1122.8
2018-09-02T04:25:16.611Z,1122.86
2018-09-02T04:26:16.644Z,1122.84
2018-09-02T04:27:16.621Z,1122.89
2018-09-02T04:28:16.624Z,1122.88
2018-09-02T04:29:16.637Z,1122.89
2018-09-02T04:30:16.636Z,1122.83
2018-09-02T04:31:16.647Z,1122.8
2018-09-02T04:32:16.657Z,1122.71
2018-09-02T04:33:16.657Z,1122.58
2018-09-02T04:34:16.637Z,1122.54
2018-09-02T04:35:16.640Z,1122.49
2018-09-02T04:36:16.644Z,1122.43
2018-09-02T04:37:16.659Z,1122.52
2018-09-02T04:38:16.692Z,1122.32
2018-09-02T04:39:16.677Z,1122.29
2018-09-02T04:40:16.651Z,1122.26
2018-09-02T04:41:16.684Z,1122.35
2018-09-02T04:42:16.646Z,1122.28
2018-09-02T04:43:16.655Z,1122.3
2018-09-02T04:44:16.660Z,1122.29
2018-09-02T04:45:16.725Z,1122.28
2018-09-02T04:46:16.655Z,1122.32
2018-09-02T04:47:16.655Z,1122.31
2018-09-02T04:48:16.667Z,1122.32
2018-09-02T04:49:16.664Z,1122.22
2018-09-02T04:50:16.677Z,1122.24
2018-09-02T04:51:16.674Z,1122
2018-09-02T04:52:16.687Z,1121.95
2018-09-02T04:53:16.684Z,1121.88
2018-09-02T04:54:16.826Z,1121.79
2018-09-02T04:55:16.662Z,1121.76
2018-09-02T04:56:16.671Z,1121.53
2018-09-02T04:57:16.678Z,1121.45
2018-09-02T04:58:16.690Z,1121.56
2018-09-02T04:59:16.682Z,1121.36
2018-09-02T05:00:16.734Z,1121.36
2018-09-02T05:01:16.685Z,1121.25
2018-09-02T05:02:16.720Z,1121.12
2018-09-02T05:03:16.684Z,1121.08
2018-09-02T05:04:16.689Z,1120.98
2018-09-02T05:05:16.697Z,1120.72
2018-09-02T05:06:16.678Z,1120.53
2018-09-02T05:07:16.676Z,1120.44
2018-09-02T05:08:16.697Z,1120.15
2018-09-02T05:09:16.693Z,1119.91
2018-09-02T05:10:16.708Z,1119.79
2018-09-02T05:11:16.707Z,1119.62
2018-09-02T05:12:16.716Z,1119.35
2018-09-02T05:13:16.721Z,1119.14
2018-09-02T05:14:16.713Z,1118.91
2018-09-02T05:15:16.808Z,1118.59
2018-09-02T05:16:16.696Z,1118.46
2018-09-02T05:17:16.711Z,1118.17
2018-09-02T05:18:16.719Z,1117.87
2018-09-02T05:20:34.281Z,1117.57
2018-09-02T05:21:33.975Z,1117.48
2018-09-02T05:22:33.947Z,1117.33
2018-09-02T05:23:33.965Z,1117.19
2018-09-02T05:24:33.953Z,1116.95
2018-09-02T05:25:33.995Z,1116.76
2018-09-02T05:26:33.948Z,1116.38
2018-09-02T05:27:33.949Z,1116.25
2018-09-02T05:28:33.983Z,1115.75
2018-09-02T05:29:33.956Z,1115.74
2018-09-02T05:30:33.962Z,1115.53
2018-09-02T05:31:33.970Z,1115.44
2018-09-02T05:32:33.977Z,1115.28
2018-09-02T05:33:33.944Z,1115.11
2018-09-02T05:34:33.952Z,1115
2018-09-02T05:35:33.963Z,1114.76
2018-09-02T05:36:34.072Z,1114.76
2018-09-02T05:37:33.977Z,1114.43
2018-09-02T05:38:33.978Z,1114.2
2018-09-02T05:39:33.983Z,1113.93
2018-09-02T05:40:33.976Z,1113.57
2018-09-02T05:45:03.509Z,1112.53
2018-09-02T05:46:03.548Z,1112.23
2018-09-02T05:47:03.522Z,1112.17
2018-09-02T05:49:22.556Z,1111.93
2018-09-02T05:50:22.553Z,1111.83
2018-09-02T05:51:22.578Z,1111.69
2018-09-02T05:52:22.534Z,1111.65
2018-09-02T05:53:22.548Z,1111.36
2018-09-02T05:54:22.549Z,1111.43
2018-09-02T05:55:22.559Z,1111.28
2018-09-02T05:56:22.546Z,1111.27
2018-09-02T05:57:22.553Z,1111
2018-09-02T05:58:22.571Z,1111.07
2018-09-02T05:59:22.548Z,1111.19
2018-09-02T06:00:22.561Z,1111.04
2018-09-02T06:01:22.557Z,1111.24
2018-09-02T06:02:22.564Z,1111.13
2018-09-02T06:03:22.575Z,1111.27
2018-09-02T06:04:22.554Z,1111.39
2018-09-02T06:05:22.582Z,1111.45
2018-09-02T06:06:22.572Z,1111.59
2018-09-02T06:07:22.566Z,1111.6
2018-09-02T06:08:22.565Z,1111.85
2018-09-02T06:09:22.597Z,1111.89
2018-09-02T06:10:22.584Z,1112.01
2018-09-02T06:11:22.590Z,1112.06
2018-09-02T06:12:22.572Z,1112.06
2018-09-02T06:13:22.578Z,1112.23
2018-09-02T06:14:22.572Z,1112.13
2018-09-02T06:15:22.578Z,1112.1
2018-09-02T06:20:38.578Z,1112.14
2018-09-02T06:20:51.216Z,1112.11
2018-09-02T06:21:51.196Z,1112.18
2018-09-02T06:22:51.195Z,1112.22
2018-09-02T06:23:51.209Z,1112.16
2018-09-02T06:24:51.210Z,1112.23
2018-09-02T06:25:51.201Z,1112.31
2018-09-02T06:26:51.198Z,1112.36
2018-09-02T06:27:51.209Z,1112.63
2018-09-02T06:28:51.270Z,1112.63
2018-09-02T06:29:51.315Z,1113.09
2018-09-02T06:30:51.218Z,1112.99
2018-09-02T06:31:51.227Z,1113.07
2018-09-02T06:32:51.320Z,1113.28
2018-09-02T06:33:51.218Z,1113.54
2018-09-02T06:34:51.211Z,1113.51
2018-09-02T06:35:51.222Z,1113.68
2018-09-02T06:36:51.224Z,1113.85
2018-09-02T06:37:51.227Z,1114
2018-09-02T06:38:51.214Z,1113.81
2018-09-02T06:39:51.203Z,1114.29
2018-09-02T06:40:51.221Z,1114.24
2018-09-02T06:41:51.222Z,1114.45
2018-09-02T06:42:51.261Z,1114.46
2018-09-02T06:43:51.230Z,1114.45
2018-09-02T06:44:51.242Z,1114.57
2018-09-02T06:45:51.301Z,1114.58
2018-09-02T06:46:51.234Z,1114.64
2018-09-02T06:53:31.838Z,1115.57
2018-09-02T06:54:31.786Z,1115.69
2018-09-02T06:55:31.794Z,1115.68
2018-09-02T06:56:31.793Z,1115.74
2018-09-02T06:57:31.802Z,1115.61
2018-09-02T06:58:31.856Z,1115.75
2018-09-02T06:59:31.820Z,1115.87
2018-09-02T07:00:31.789Z,1116.04
2018-09-02T07:01:31.788Z,1116.24
2018-09-02T07:02:31.819Z,1116.43
2018-09-02T07:04:51.619Z,1116.32
2018-09-02T07:05:51.584Z,1116.42
2018-09-02T07:06:51.635Z,1116.41
2018-09-02T07:07:51.602Z,1116.19
2018-09-02T07:08:51.604Z,1116.24
2018-09-02T07:09:51.607Z,1116.28
2018-09-02T07:10:51.595Z,1116.3
2018-09-02T07:11:51.602Z,1116.21
2018-09-02T07:12:51.595Z,1116.24
2018-09-02T07:13:51.637Z,1116.13
2018-09-02T07:14:51.603Z,1116.03
2018-09-02T07:15:51.618Z,1116.06
2018-09-02T07:16:51.618Z,1115.94
2018-09-02T07:17:51.627Z,1115.81
2018-09-02T07:18:51.616Z,1115.71
2018-09-02T07:19:51.622Z,1115.72
2018-09-02T07:20:51.618Z,1115.76
2018-09-02T07:21:51.625Z,1115.79
2018-09-02T07:22:51.645Z,1115.81
2018-09-02T07:23:51.629Z,1116.15
2018-09-02T07:24:51.637Z,1116.3
2018-09-02T07:25:51.639Z,1116.41
2018-09-02T07:26:51.614Z,1116.48
2018-09-02T07:27:51.628Z,1116.77
2018-09-02T07:28:51.630Z,1116.71
2018-09-02T07:29:51.668Z,1116.94
2018-09-02T07:30:51.647Z,1117.09
2018-09-02T07:31:51.623Z,1117.11
2018-09-02T07:32:51.638Z,1117.52
2018-09-02T07:33:51.660Z,1117.71
2018-09-02T07:34:51.672Z,1117.95
2018-09-02T07:35:51.639Z,1118.06
2018-09-02T07:36:51.651Z,1118.15
2018-09-02T07:37:51.696Z,1118.28
2018-09-02T07:38:51.664Z,1118.29
2018-09-02T07:39:51.633Z,1118.63
2018-09-02T07:40:51.654Z,1118.74
2018-09-02T07:45:21.717Z,1119.88
2018-09-02T07:46:21.732Z,1120.11
2018-09-02T07:50:50.848Z,1120.91
2018-09-02T07:51:50.825Z,1120.95
2018-09-02T07:52:50.869Z,1121.21
2018-09-02T07:53:50.835Z,1121.42
2018-09-02T07:54:50.842Z,1121.45
2018-09-02T07:55:50.855Z,1121.66
2018-09-02T07:56:50.829Z,1121.87
2018-09-02T07:57:50.862Z,1122.04
2018-09-02T07:58:50.868Z,1122.28
2018-09-02T07:59:51.081Z,1122.44
2018-09-02T08:00:50.850Z,1122.5
2018-09-02T08:01:50.857Z,1122.75
2018-09-02T08:02:50.935Z,1123.09
2018-09-02T08:03:50.830Z,1123.49
2018-09-02T08:04:50.871Z,1123.86
2018-09-02T08:05:50.888Z,1124.27
2018-09-02T08:06:50.858Z,1124.85
2018-09-02T08:07:50.858Z,1125.17
2018-09-02T08:08:50.864Z,1125.63
2018-09-02T08:09:50.851Z,1126.02
2018-09-02T08:10:50.857Z,1126.5
2018-09-02T08:11:50.853Z,1126.73
2018-09-02T08:12:51.101Z,1126.83
2018-09-02T08:13:50.868Z,1126.95
2018-09-02T08:14:50.992Z,1127.12
2018-09-02T08:15:50.876Z,1127.22
2018-09-02T08:16:50.890Z,1127.31
2018-09-02T08:17:50.861Z,1127.37
2018-09-02T08:18:50.862Z,1127.55
2018-09-02T08:19:50.915Z,1127.5
2018-09-02T08:20:50.883Z,1127.51
2018-09-02T08:21:50.881Z,1127.55
2018-09-02T08:22:50.897Z,1127.3
2018-09-02T08:23:50.874Z,1127.34
2018-09-02T08:24:51.015Z,1127.22
2018-09-02T08:25:50.874Z,1127.17
2018-09-02T08:26:50.879Z,1127.07
2018-09-02T08:27:50.884Z,1127.01
2018-09-02T08:28:50.907Z,1126.72
2018-09-02T08:29:50.898Z,1126.58
2018-09-02T08:30:50.910Z,1126.42
2018-09-02T08:31:50.889Z,1126.27
2018-09-02T08:32:50.952Z,1126.19
2018-09-02T08:33:50.913Z,1126.14
2018-09-02T08:34:50.902Z,1125.93
2018-09-02T08:35:50.908Z,1125.85
2018-09-02T08:36:50.913Z,1125.63
2018-09-02T08:37:50.919Z,1125.49
2018-09-02T08:38:51.018Z,1125.3
2018-09-02T08:39:50.900Z,1125.06
2018-09-02T08:40:50.924Z,1125.06
2018-09-02T08:41:50.907Z,1124.98
2018-09-02T08:42:50.932Z,1124.85
2018-09-02T08:43:50.945Z,1124.81
2018-09-02T08:44:50.913Z,1124.9
2018-09-02T08:45:50.918Z,1124.86
2018-09-02T08:46:50.918Z,1124.8
2018-09-02T08:51:20.677Z,1124.97
2018-09-02T08:52:20.671Z,1124.95
2018-09-02T08:53:20.664Z,1124.9
2018-09-02T08:54:20.650Z,1124.89
2018-09-02T08:55:20.666Z,1124.92
2018-09-02T08:56:20.678Z,1124.99
2018-09-02T08:57:20.697Z,1124.92
2018-09-02T08:58:20.678Z,1125.06
2018-09-02T08:59:20.687Z,1125.06
2018-09-02T09:00:20.690Z,1125.17
2018-09-02T09:01:20.666Z,1125.22
2018-09-02T09:02:20.674Z,1125.27
2018-09-02T09:03:20.692Z,1125.36
2018-09-02T09:04:20.688Z,1125.36
2018-09-02T09:05:20.694Z,1125.6
2018-09-02T09:06:20.667Z,1125.66
2018-09-02T09:07:20.725Z,1125.89
2018-09-02T09:08:20.949Z,1125.95
2018-09-02T09:09:20.936Z,1126.17
2018-09-02T09:10:20.693Z,1126.26
2018-09-02T09:11:20.671Z,1126.38
2018-09-02T09:12:20.705Z,1126.55
2018-09-02T09:13:20.690Z,1126.62
2018-09-02T09:14:20.689Z,1126.8
2018-09-02T09:15:20.692Z,1126.92
2018-09-02T09:16:20.703Z,1127.11
2018-09-02T09:17:20.700Z,1127.12
2018-09-02T09:18:20.784Z,1127.22
2018-09-02T09:19:20.686Z,1127.33
2018-09-02T09:20:20.703Z,1127.52
2018-09-02T09:21:20.690Z,1127.67
2018-09-02T09:22:20.710Z,1127.98
2018-09-02T09:23:20.706Z,1128.28
2018-09-02T09:24:20.717Z,1128.47
2018-09-02T09:25:20.719Z,1128.68
2018-09-02T09:26:20.694Z,1128.93
2018-09-02T09:27:20.702Z,1129.1
2018-09-02T09:28:20.700Z,1129.23
2018-09-02T09:29:20.709Z,1129.41
2018-09-02T09:30:20.729Z,1129.51
2018-09-02T09:31:20.724Z,1129.81
2018-09-02T09:32:20.982Z,1130.26
2018-09-02T09:33:20.704Z,1130.53
2018-09-02T09:34:20.709Z,1130.91
2018-09-02T09:35:20.720Z,1131.01
2018-09-02T09:36:20.743Z,1131.29
2018-09-02T09:37:20.745Z,1131.68
2018-09-02T09:38:20.707Z,1131.82
2018-09-02T09:39:20.714Z,1131.95
2018-09-02T09:40:20.712Z,1132.09
2018-09-02T09:41:20.735Z,1132.18
2018-09-02T09:42:20.744Z,1132.3
2018-09-02T09:43:20.732Z,1132.48
2018-09-02T09:44:20.739Z,1132.54
2018-09-02T09:45:20.745Z,1132.62
2018-09-02T09:46:20.754Z,1132.73
2018-09-02T09:47:20.777Z,1132.67
2018-09-02T09:48:20.741Z,1132.73
2018-09-02T09:49:20.739Z,1132.84
2018-09-02T09:50:20.779Z,1132.94
2018-09-02T09:51:20.786Z,1133.18
2018-09-02T09:52:20.757Z,1133.35
2018-09-02T09:53:20.761Z,1133.45
2018-09-02T09:55:40.452Z,1133.59
2018-09-02T09:56:40.340Z,1133.63
2018-09-02T09:57:40.312Z,1133.65
2018-09-02T09:58:40.323Z,1133.79
2018-09-02T09:59:40.334Z,1133.72
2018-09-02T10:00:40.341Z,1133.65
2018-09-02T10:01:40.366Z,1133.62
2018-09-02T10:02:40.351Z,1133.59
2018-09-02T10:03:40.395Z,1133.56
2018-09-02T10:04:40.359Z,1133.72
2018-09-02T10:05:40.339Z,1133.77
2018-09-02T10:06:40.338Z,1133.74
2018-09-02T10:07:40.346Z,1133.67
2018-09-02T10:08:40.363Z,1133.61
2018-09-02T10:09:40.375Z,1133.57
2018-09-02T10:10:40.389Z,1133.37
2018-09-02T10:11:40.417Z,1133.27
2018-09-02T10:12:40.383Z,1133.17
2018-09-02T10:13:40.388Z,1133.13
2018-09-02T10:14:40.380Z,1133.22
2018-09-02T10:15:40.360Z,1132.96
2018-09-02T10:16:40.373Z,1133.02
2018-09-02T10:17:40.360Z,1132.99
2018-09-02T10:18:40.381Z,1133.01
2018-09-02T10:19:40.935Z,1133.01
2018-09-02T10:20:40.362Z,1133.09
2018-09-02T10:21:40.380Z,1133.09
2018-09-02T10:22:40.374Z,1133.06
2018-09-02T10:23:40.383Z,1133.08
2018-09-02T10:24:40.391Z,1133.11
2018-09-02T10:25:57.117Z,1133.07
2018-09-02T10:26:57.473Z,1133.03
2018-09-02T10:27:57.134Z,1133.21
2018-09-02T10:28:57.135Z,1133.24
2018-09-02T10:29:57.147Z,1133.28
2018-09-02T10:30:57.155Z,1133.38
2018-09-02T10:31:57.127Z,1133.41
2018-09-02T10:32:57.182Z,1133.4
2018-09-02T10:33:57.140Z,1133.33
2018-09-02T10:34:57.163Z,1133.25
2018-09-02T10:35:57.171Z,1133.32
2018-09-02T10:36:57.125Z,1133.2
2018-09-02T10:37:57.287Z,1133.26
2018-09-02T10:38:57.143Z,1133.27
2018-09-02T10:39:57.143Z,1133.35
2018-09-02T10:40:57.160Z,1133.52
2018-09-02T10:41:57.156Z,1133.63
2018-09-02T10:42:57.164Z,1133.75
2018-09-02T10:43:57.169Z,1133.91
2018-09-02T10:44:57.141Z,1134.01
2018-09-02T10:45:57.163Z,1134.17
2018-09-02T10:46:57.152Z,1134.32
2018-09-02T10:47:57.204Z,1134.43
2018-09-02T10:48:57.183Z,1134.56
2018-09-02T10:49:57.177Z,1134.67
2018-09-02T10:50:58.547Z,1134.86
2018-09-02T10:51:57.162Z,1134.98
2018-09-02T10:52:57.294Z,1135
2018-09-02T10:53:57.168Z,1135.1
2018-09-02T10:54:57.176Z,1135.16
2018-09-02T10:55:57.182Z,1135.25
2018-09-02T10:56:57.573Z,1135.27
2018-09-02T10:57:57.180Z,1135.38
2018-09-02T10:58:57.184Z,1135.47
2018-09-02T10:59:57.181Z,1135.59
2018-09-02T11:00:57.217Z,1135.71
2018-09-02T11:01:57.200Z,1135.88
2018-09-02T11:02:57.268Z,1136
2018-09-02T11:03:57.203Z,1136.05
2018-09-02T11:04:57.208Z,1136.08
2018-09-02T11:05:57.197Z,1136.16
2018-09-02T11:06:57.223Z,1136.22
2018-09-02T11:07:57.380Z,1136.26
2018-09-02T11:08:57.211Z,1136.29
2018-09-02T11:09:57.219Z,1136.36
2018-09-02T11:10:57.216Z,1136.34
2018-09-02T11:11:57.204Z,1136.38
2018-09-02T11:12:57.278Z,1136.33
2018-09-02T11:13:57.385Z,1136.36
2018-09-02T11:14:57.211Z,1136.39
2018-09-02T11:15:57.220Z,1136.42
2018-09-02T11:16:57.214Z,1136.45
2018-09-02T11:17:57.345Z,1136.52
2018-09-02T11:18:57.227Z,1136.5
2018-09-02T11:19:57.221Z,1136.56
2018-09-02T11:20:57.221Z,1136.48
2018-09-02T11:21:57.260Z,1136.58
2018-09-02T11:22:57.232Z,1136.52
2018-09-02T11:23:57.228Z,1136.54
2018-09-02T11:24:57.235Z,1136.52
2018-09-02T11:25:57.240Z,1136.52
2018-09-02T11:26:57.210Z,1136.55
2018-09-02T11:27:57.277Z,1136.51
2018-09-02T11:28:57.222Z,1136.45
2018-09-02T11:29:57.228Z,1136.43
2018-09-02T11:30:57.235Z,1136.45
2018-09-02T11:31:57.243Z,1136.41
2018-09-02T11:32:57.258Z,1136.39
2018-09-02T11:33:57.307Z,1136.41
2018-09-02T11:34:57.264Z,1136.32
2018-09-02T11:35:57.270Z,1136.31
2018-09-02T11:36:57.248Z,1136.35
2018-09-02T11:37:57.249Z,1136.4
2018-09-02T11:38:57.259Z,1136.35
2018-09-02T11:39:57.273Z,1136.39
2018-09-02T11:40:57.249Z,1136.4
2018-09-02T11:41:57.284Z,1136.39
2018-09-02T11:42:57.281Z,1136.38
2018-09-02T11:43:57.263Z,1136.31
2018-09-02T11:44:57.274Z,1136.27
2018-09-02T11:45:57.272Z,1136.23
2018-09-02T11:46:57.404Z,1136.15
2018-09-02T11:47:57.283Z,1136.14
2018-09-02T11:48:57.290Z,1136.1
2018-09-02T11:49:57.257Z,1136.07
2018-09-02T11:50:57.266Z,1136.04
2018-09-02T11:51:57.271Z,1135.93
2018-09-02T11:52:57.325Z,1135.98
2018-09-02T11:53:57.287Z,1135.95
2018-09-02T11:54:57.315Z,1135.99
2018-09-02T11:55:57.288Z,1135.96
2018-09-02T11:56:57.507Z,1135.97
2018-09-02T11:57:57.277Z,1136
2018-09-02T11:58:57.321Z,1136.03
2018-09-02T11:59:57.290Z,1136.05
2018-09-02T12:00:57.298Z,1136.09
2018-09-02T12:01:57.352Z,1136.04
2018-09-02T12:02:57.293Z,1136.06
2018-09-02T12:03:57.413Z,1136.06
2018-09-02T12:04:57.358Z,1136.03
2018-09-02T12:05:57.295Z,1136.02
2018-09-02T12:06:57.304Z,1135.99
2018-09-02T12:07:57.322Z,1136.03
2018-09-02T12:08:57.350Z,1135.97
2018-09-02T12:09:57.293Z,1136.02
2018-09-02T12:10:58.591Z,1136.05
2018-09-02T12:11:57.299Z,1136.14
2018-09-02T12:12:57.311Z,1136.11
2018-09-02T12:13:57.325Z,1136.09
2018-09-02T12:14:57.530Z,1136.1
2018-09-02T12:15:57.342Z,1136.1
2018-09-02T12:16:57.369Z,1136.03
2018-09-02T12:17:57.308Z,1136.01
2018-09-02T12:18:57.790Z,1136.03
2018-09-02T12:19:57.332Z,1136.04
2018-09-02T12:20:57.325Z,1136.03
2018-09-02T12:21:57.336Z,1136.08
2018-09-02T12:22:57.320Z,1136.12
2018-09-02T12:23:57.360Z,1136.12
2018-09-02T12:24:57.322Z,1136.09
2018-09-02T12:25:57.339Z,1136.09
2018-09-02T12:26:57.339Z,1136.1
2018-09-02T12:27:57.349Z,1136.09
2018-09-02T12:28:57.380Z,1136.06
2018-09-02T12:29:57.340Z,1136.05
2018-09-02T12:30:57.324Z,1136.03
2018-09-02T12:31:57.326Z,1136.02
2018-09-02T12:32:57.333Z,1135.97
2018-09-02T12:33:57.342Z,1136.01
2018-09-02T12:34:57.352Z,1135.98
2018-09-02T12:35:57.359Z,1135.91
2018-09-02T12:36:57.396Z,1136.01
2018-09-02T12:38:01.298Z,1135.96
2018-09-02T12:38:57.342Z,1135.94
2018-09-02T12:39:57.358Z,1135.99
2018-09-02T12:40:57.361Z,1135.93
2018-09-02T12:41:57.367Z,1135.88
2018-09-02T12:42:57.376Z,1135.94
2018-09-02T12:43:57.356Z,1135.87
2018-09-02T12:44:57.348Z,1135.95
2018-09-02T12:45:57.389Z,1135.97
2018-09-02T12:46:57.372Z,1136.04
2018-09-02T12:47:57.454Z,1136.06
2018-09-02T12:48:57.384Z,1136.16